Time;durP1;ratioP1;P1;durP2;ratioP2;P2;SDS_P1;SDS_P2;PMS_P1;PMS_P2;Temp;Humidity;BMP_temperature;BMP_pressure;BME280_temperature;BME280_humidity;BME280_pressure;Samples;Min_cycle;Max_cycle;Signal;HPM_P1;HPM_P2
2022/03/01 00:00:56;;;;;;;2.55;2.17;;;;;;;26.37;25.57;97718.94;5007924;28;20037;-28
2022/03/01 00:03:22;;;;;;;3.42;2.25;;;;;;;26.38;25.58;97719.81;5008358;28;20044;-28
2022/03/01 00:05:47;;;;;;;2.72;2.25;;;;;;;26.37;25.46;97710.19;5008723;28;20036;-28
2022/03/01 00:08:12;;;;;;;2.53;2.20;;;;;;;26.37;25.64;97712.81;5009540;28;20033;-27
2022/03/01 00:10:38;;;;;;;3.20;2.33;;;;;;;26.37;25.55;97720.72;5009544;28;20025;-28
2022/03/01 00:13:03;;;;;;;3.03;2.30;;;;;;;26.35;25.52;97713.75;5008145;28;20041;-31
2022/03/01 00:15:29;;;;;;;3.25;2.28;;;;;;;26.35;25.63;97719.00;5006941;28;20431;-30
2022/03/01 00:17:54;;;;;;;3.67;2.50;;;;;;;26.35;25.48;97716.38;5007899;28;20037;-27
2022/03/01 00:20:19;;;;;;;2.95;2.40;;;;;;;26.35;25.56;97724.25;5007720;28;20029;-27
2022/03/01 00:22:45;;;;;;;3.33;2.50;;;;;;;26.35;25.65;97718.13;5007739;28;20036;-29
2022/03/01 00:25:10;;;;;;;2.80;2.30;;;;;;;26.34;25.46;97717.31;5009903;28;20088;-29
2022/03/01 00:27:36;;;;;;;2.50;2.17;;;;;;;26.34;25.49;97722.56;5007179;28;20030;-28
2022/03/01 00:30:01;;;;;;;3.20;2.30;;;;;;;26.34;25.81;97725.19;5006397;28;20033;-33
2022/03/01 00:32:26;;;;;;;2.60;2.22;;;;;;;26.34;25.61;97733.06;5006810;28;20044;-27
2022/03/01 00:34:52;;;;;;;2.88;2.35;;;;;;;26.34;25.50;97733.06;5008574;28;20034;-29
2022/03/01 00:37:17;;;;;;;3.15;2.30;;;;;;;26.33;25.77;97726.09;5007840;28;20044;-27
2022/03/01 00:39:42;;;;;;;2.83;2.20;;;;;;;26.34;25.58;97727.81;5006291;28;20044;-27
2022/03/01 00:42:08;;;;;;;3.10;2.20;;;;;;;26.33;25.43;97720.84;5008988;28;20881;-27
2022/03/01 00:44:33;;;;;;;2.83;1.90;;;;;;;26.34;25.55;97727.81;5007478;28;20059;-30
2022/03/01 00:46:59;;;;;;;3.90;2.53;;;;;;;26.33;25.46;97726.09;5007690;28;20064;-26
2022/03/01 00:49:24;;;;;;;2.80;2.13;;;;;;;26.33;25.71;97725.25;5009847;28;20771;-30
2022/03/01 00:51:49;;;;;;;3.80;2.28;;;;;;;26.32;25.72;97718.28;5008897;28;20029;-27
2022/03/01 00:54:15;;;;;;;2.90;2.20;;;;;;;26.32;25.65;97716.50;5007648;28;20097;-30
2022/03/01 00:56:40;;;;;;;3.58;2.20;;;;;;;26.31;25.58;97713.97;5008197;28;20565;-28
2022/03/01 00:59:07;;;;;;;2.65;2.17;;;;;;;26.26;25.74;97703.63;5008596;28;20025;-28
2022/03/01 01:01:33;;;;;;;3.30;2.42;;;;;;;26.30;25.58;97706.97;5007179;28;20112;-28
2022/03/01 01:03:58;;;;;;;3.50;2.40;;;;;;;26.29;25.53;97700.88;5008356;28;20026;-28
2022/03/01 01:06:24;;;;;;;3.15;2.28;;;;;;;26.30;25.54;97702.56;5009122;28;20476;-27
2022/03/01 01:08:49;;;;;;;2.58;2.00;;;;;;;26.29;25.74;97703.50;5008064;28;20033;-27
2022/03/01 01:11:15;;;;;;;2.35;2.00;;;;;;;26.29;25.54;97700.88;5008952;28;20021;-28
2022/03/01 01:13:40;;;;;;;2.90;2.13;;;;;;;26.28;25.76;97701.75;5006590;28;20022;-30
2022/03/01 01:16:06;;;;;;;2.92;2.00;;;;;;;26.28;25.55;97696.50;5006082;28;20056;-29
2022/03/01 01:18:31;;;;;;;2.50;2.10;;;;;;;26.29;25.54;97702.63;5007714;28;20119;-29
2022/03/01 01:20:56;;;;;;;2.40;2.13;;;;;;;26.28;25.54;97693.03;5006866;28;20447;-29
2022/03/01 01:23:22;;;;;;;1.95;1.80;;;;;;;26.27;25.61;97684.28;5007113;28;20715;-30
2022/03/01 01:25:47;;;;;;;2.40;1.95;;;;;;;26.28;25.69;97690.41;5006448;28;20041;-30
2022/03/01 01:28:13;;;;;;;2.20;2.00;;;;;;;26.28;25.84;97686.00;5004379;28;20119;-30
2022/03/01 01:30:38;;;;;;;2.13;1.77;;;;;;;26.27;25.48;97680.84;4998097;28;20060;-28
2022/03/01 01:33:03;;;;;;;2.75;2.15;;;;;;;26.27;25.80;97681.66;5014088;28;20033;-31
2022/03/01 01:35:30;;;;;;;4.55;1.98;;;;;;;26.27;25.53;97676.41;5015206;28;20021;-29
2022/03/01 01:37:55;;;;;;;2.75;2.40;;;;;;;26.27;25.60;97684.28;5015422;28;20025;-28
2022/03/01 01:40:23;;;;;;;2.88;2.10;;;;;;;26.26;25.54;97679.97;5013932;28;20510;-29
2022/03/01 01:42:48;;;;;;;2.53;2.05;;;;;;;26.26;25.61;97679.97;5016051;28;20664;-29
2022/03/01 01:45:14;;;;;;;2.38;1.83;;;;;;;26.26;25.50;97684.34;5015714;28;20025;-30
2022/03/01 01:47:40;;;;;;;1.98;1.77;;;;;;;26.25;25.64;97686.13;5013626;28;20156;-29
2022/03/01 01:50:06;;;;;;;3.47;2.22;;;;;;;26.25;25.71;97691.38;5014662;28;20031;-28
2022/03/01 01:52:31;;;;;;;2.67;2.17;;;;;;;26.25;25.69;97686.13;5013989;28;20072;-29
2022/03/01 01:54:56;;;;;;;2.03;1.80;;;;;;;26.25;25.53;97686.13;4998799;28;20515;-28
2022/03/01 01:57:22;;;;;;;2.17;1.83;;;;;;;26.24;25.58;97676.53;5013477;28;20502;-27
2022/03/01 01:59:49;;;;;;;2.08;1.90;;;;;;;26.24;25.56;97684.41;5014219;28;20060;-27
2022/03/01 02:02:15;;;;;;;2.85;2.08;;;;;;;26.24;25.57;97673.91;5014197;28;20409;-27
2022/03/01 02:04:40;;;;;;;2.15;1.95;;;;;;;26.23;25.93;97678.28;5008838;28;20033;-27
2022/03/01 02:07:06;;;;;;;2.10;1.90;;;;;;;26.23;25.58;97672.16;5006117;28;20021;-28
2022/03/01 02:09:31;;;;;;;2.50;1.92;;;;;;;26.23;25.65;97672.16;5007694;28;20025;-28
2022/03/01 02:11:57;;;;;;;2.35;1.63;;;;;;;26.22;25.63;97665.22;5006254;28;20063;-27
2022/03/01 02:14:22;;;;;;;2.08;1.77;;;;;;;26.22;25.65;97666.09;5005791;28;20071;-29
2022/03/01 02:16:48;;;;;;;2.45;1.80;;;;;;;26.22;25.51;97670.47;5006507;28;20036;-28
2022/03/01 02:19:13;;;;;;;3.03;2.03;;;;;;;26.21;25.70;97666.13;5008225;28;20091;-28
2022/03/01 02:21:46;;;;;;;2.63;2.03;;;;;;;26.22;25.60;97670.47;5006157;28;20145;-28
2022/03/01 02:24:12;;;;;;;2.45;2.10;;;;;;;26.21;25.35;97666.13;5008078;28;20053;-28
2022/03/01 02:26:37;;;;;;;2.08;1.80;;;;;;;26.20;25.72;97667.06;5007122;28;20079;-30
2022/03/01 02:29:02;;;;;;;2.35;1.80;;;;;;;26.20;25.80;97672.31;5007204;28;20077;-29
2022/03/01 02:31:28;;;;;;;2.90;2.10;;;;;;;26.20;25.37;97667.06;5007776;28;20033;-29
2022/03/01 02:33:53;;;;;;;3.08;1.70;;;;;;;26.21;25.57;97658.25;4991918;28;20042;-29
2022/03/01 02:36:19;;;;;;;2.10;1.90;;;;;;;26.19;25.70;97665.31;5004660;28;20029;-28
2022/03/01 02:38:44;;;;;;;2.20;1.90;;;;;;;26.19;25.84;97662.72;5006559;28;20029;-29
2022/03/01 02:41:10;;;;;;;2.97;2.00;;;;;;;26.18;25.77;97658.38;5005878;28;20033;-30
2022/03/01 02:43:35;;;;;;;2.30;1.88;;;;;;;26.18;25.67;97658.38;5006078;28;20551;-29
2022/03/01 02:46:00;;;;;;;2.92;1.88;;;;;;;26.17;25.85;97657.53;5005629;28;20801;-29
2022/03/01 02:48:26;;;;;;;2.45;1.80;;;;;;;26.19;25.54;97660.06;5006936;28;20483;-28
2022/03/01 02:50:51;;;;;;;3.20;1.63;;;;;;;26.17;25.89;97662.78;5004624;28;20034;-28
2022/03/01 02:53:16;;;;;;;2.05;1.55;;;;;;;26.17;25.73;97661.94;5010520;28;20365;-27
2022/03/01 02:55:42;;;;;;;2.47;1.77;;;;;;;26.16;25.83;97658.44;5010525;28;20030;-31
2022/03/01 02:58:07;;;;;;;4.63;3.33;;;;;;;26.15;25.44;97663.75;5009142;28;20036;-29
2022/03/01 03:00:33;;;;;;;3.45;2.30;;;;;;;26.14;25.58;97662.03;5010389;28;21981;-27
2022/03/01 03:02:58;;;;;;;2.60;2.05;;;;;;;26.13;25.14;97666.47;5012895;28;20029;-30
2022/03/01 03:05:23;;;;;;;2.50;2.15;;;;;;;26.13;25.38;97658.59;5013535;28;20395;-28
2022/03/01 03:07:49;;;;;;;3.45;2.03;;;;;;;26.13;25.53;97660.34;5011621;28;20053;-28
2022/03/01 03:10:14;;;;;;;2.40;1.80;;;;;;;26.09;25.74;97655.19;5009122;28;20118;-29
2022/03/01 03:12:40;;;;;;;3.85;1.85;;;;;;;26.13;25.99;97657.72;5008533;28;20029;-29
2022/03/01 03:15:06;;;;;;;3.33;1.92;;;;;;;26.11;25.81;97652.50;5008561;28;20029;-26
2022/03/01 03:17:31;;;;;;;3.42;1.80;;;;;;;26.12;26.02;97653.38;5009060;28;20033;-28
2022/03/01 03:19:57;;;;;;;2.15;1.88;;;;;;;26.12;25.75;97648.13;5009560;28;20045;-27
2022/03/01 03:22:22;;;;;;;2.45;1.63;;;;;;;26.10;25.46;97648.19;5008098;28;20305;-29
2022/03/01 03:24:48;;;;;;;2.25;1.70;;;;;;;26.11;25.74;97657.78;5010432;28;20029;-27
2022/03/01 03:27:13;;;;;;;1.95;1.58;;;;;;;26.11;26.00;97660.41;5007746;28;21054;-28
2022/03/01 03:29:38;;;;;;;1.90;1.50;;;;;;;26.12;25.73;97656.00;5014910;28;20025;-29
2022/03/01 03:32:04;;;;;;;1.92;1.70;;;;;;;26.10;25.35;97656.06;5013159;28;20112;-32
2022/03/01 03:34:30;;;;;;;2.55;1.90;;;;;;;26.09;25.44;97657.81;5012254;28;20033;-29
2022/03/01 03:36:55;;;;;;;2.15;1.70;;;;;;;26.09;25.96;97660.47;5009442;28;20037;-28
2022/03/01 03:39:20;;;;;;;2.20;1.70;;;;;;;26.09;25.90;97655.19;5009764;28;20041;-29
2022/03/01 03:41:46;;;;;;;1.63;1.52;;;;;;;26.08;25.98;97658.75;5008746;28;20041;-28
2022/03/01 03:44:11;;;;;;;1.88;1.23;;;;;;;26.07;25.98;97657.06;5009261;28;20029;-29
2022/03/01 03:46:37;;;;;;;4.93;2.00;;;;;;;26.08;25.38;97655.25;5008477;28;20180;-30
2022/03/01 03:49:03;;;;;;;2.67;1.88;;;;;;;26.08;25.70;97656.13;5009146;28;20055;-30
2022/03/01 03:51:28;;;;;;;1.88;1.60;;;;;;;26.08;25.38;97647.38;5009772;28;20074;-33
2022/03/01 03:53:54;;;;;;;2.53;1.60;;;;;;;26.07;25.69;97651.81;5010574;28;20492;-31
2022/03/01 03:56:19;;;;;;;1.60;1.50;;;;;;;26.07;25.70;97641.28;5016336;28;20029;-29
2022/03/01 03:58:44;;;;;;;2.13;1.75;;;;;;;26.07;25.38;97640.44;5010472;28;20024;-29
2022/03/01 04:01:10;;;;;;;2.58;1.88;;;;;;;26.07;25.48;97643.06;5010027;28;20041;-28
2022/03/01 04:03:35;;;;;;;1.70;1.45;;;;;;;26.06;25.81;97642.22;5010140;28;20624;-27
2022/03/01 04:06:01;;;;;;;2.63;1.80;;;;;;;26.05;25.94;97643.09;5012502;28;20079;-28
2022/03/01 04:08:27;;;;;;;2.90;1.80;;;;;;;26.05;25.70;97644.91;5010602;28;20029;-29
2022/03/01 04:10:53;;;;;;;1.60;1.30;;;;;;;26.05;25.73;97648.34;5008324;28;20033;-28
2022/03/01 04:13:19;;;;;;;2.13;1.40;;;;;;;26.04;25.82;97644.03;5010248;28;20451;-30
2022/03/01 04:15:44;;;;;;;1.90;1.58;;;;;;;26.03;25.52;97649.34;5008844;28;20029;-28
2022/03/01 04:18:09;;;;;;;2.90;1.50;;;;;;;26.03;25.72;97652.84;4992267;28;20026;-32
2022/03/01 04:20:35;;;;;;;2.13;1.55;;;;;;;26.04;25.84;97654.53;5010198;28;20499;-31
2022/03/01 04:23:00;;;;;;;1.40;1.30;;;;;;;26.03;25.74;97644.97;5010016;28;20083;-30
2022/03/01 04:25:25;;;;;;;2.75;1.80;;;;;;;26.03;25.85;97647.59;5009073;28;20047;-29
2022/03/01 04:27:52;;;;;;;1.60;1.50;;;;;;;26.03;25.63;97644.09;5008493;28;20033;-37
2022/03/01 04:30:17;;;;;;;2.05;1.58;;;;;;;26.02;25.48;97653.75;5012700;28;20060;-30
2022/03/01 04:32:43;;;;;;;2.65;1.67;;;;;;;26.02;25.86;97653.75;5013338;28;20071;-28
2022/03/01 04:35:09;;;;;;;1.60;1.33;;;;;;;26.00;25.80;97650.31;5015980;28;20064;-27
2022/03/01 04:37:39;;;;;;;2.35;1.42;;;;;;;26.01;25.70;97644.16;5011690;28;20029;-27
2022/03/01 04:40:05;;;;;;;2.17;1.38;;;;;;;26.01;25.72;97641.53;4979310;28;20112;-29
2022/03/01 04:42:31;;;;;;;1.52;1.40;;;;;;;26.01;25.59;97638.06;5010072;28;20025;-26
2022/03/01 04:44:56;;;;;;;1.65;1.40;;;;;;;25.99;25.55;97638.13;5008937;28;20033;-32
2022/03/01 04:47:21;;;;;;;1.65;1.45;;;;;;;26.00;25.65;97639.81;5004394;28;20056;-31
2022/03/01 04:49:47;;;;;;;2.03;1.45;;;;;;;26.00;25.72;97634.56;5006505;28;20029;-28
2022/03/01 04:52:12;;;;;;;2.30;1.63;;;;;;;25.99;25.72;97630.25;5001518;28;20037;-28
2022/03/01 04:54:37;;;;;;;1.67;1.58;;;;;;;25.98;25.91;97625.91;5005614;28;20364;-33
2022/03/01 04:57:03;;;;;;;2.08;1.73;;;;;;;25.98;25.68;97620.66;5004232;28;20036;-29
2022/03/01 04:59:29;;;;;;;1.73;1.40;;;;;;;25.98;25.80;97625.03;5002727;28;21827;-31
2022/03/01 05:01:54;;;;;;;1.92;1.38;;;;;;;25.97;25.61;97624.19;5004671;28;20033;-27
2022/03/01 05:04:19;;;;;;;1.80;1.40;;;;;;;25.96;25.68;97622.47;5011080;28;20073;-28
2022/03/01 05:06:45;;;;;;;2.10;1.52;;;;;;;25.96;25.79;97627.72;5011796;28;20045;-28
2022/03/01 05:09:12;;;;;;;1.58;1.38;;;;;;;25.95;25.73;97626.03;5009604;28;20052;-28
2022/03/01 05:11:37;;;;;;;2.03;1.40;;;;;;;25.95;25.76;97624.28;5009790;28;20064;-29
2022/03/01 05:14:03;;;;;;;3.22;1.27;;;;;;;25.96;25.83;97635.59;5009801;28;20048;-28
2022/03/01 05:16:28;;;;;;;1.73;1.30;;;;;;;25.94;25.85;97632.19;5011185;28;20529;-26
2022/03/01 05:18:53;;;;;;;1.83;1.40;;;;;;;25.93;25.86;97627.88;5010085;28;20041;-29
2022/03/01 05:21:19;;;;;;;1.70;1.23;;;;;;;25.93;25.77;97627.88;5009460;28;20030;-28
2022/03/01 05:23:44;;;;;;;1.77;1.38;;;;;;;25.94;25.79;97629.56;5010466;28;20874;-28
2022/03/01 05:26:10;;;;;;;1.30;1.20;;;;;;;25.92;25.79;97627.00;5009681;28;20707;-27
2022/03/01 05:28:35;;;;;;;1.98;1.40;;;;;;;25.93;25.55;97622.63;5012237;28;20075;-27
2022/03/01 05:31:00;;;;;;;2.17;1.50;;;;;;;25.92;25.76;97620.88;5010649;28;20087;-27
2022/03/01 05:33:26;;;;;;;1.58;1.48;;;;;;;25.92;25.87;97620.88;5012014;28;20076;-27
2022/03/01 05:35:51;;;;;;;1.40;1.30;;;;;;;25.92;25.68;97628.75;5012300;28;20041;-27
2022/03/01 05:38:17;;;;;;;1.90;1.42;;;;;;;25.92;25.57;97615.63;5010294;28;20051;-27
2022/03/01 05:40:42;;;;;;;1.77;1.42;;;;;;;25.92;25.68;97618.25;5010704;28;20025;-27
2022/03/01 05:43:08;;;;;;;1.80;1.23;;;;;;;25.91;25.78;97612.19;5008972;28;20030;-28
2022/03/01 05:45:34;;;;;;;1.13;1.02;;;;;;;25.91;25.65;97613.94;5007171;28;20026;-28
2022/03/01 05:48:00;;;;;;;2.50;1.75;;;;;;;25.90;26.02;97617.50;5003275;28;20036;-28
2022/03/01 05:50:26;;;;;;;3.00;1.60;;;;;;;25.90;25.76;97630.63;5001539;28;21775;-27
2022/03/01 05:52:52;;;;;;;2.40;1.70;;;;;;;25.90;25.81;97623.56;5002524;28;20048;-34
2022/03/01 05:55:17;;;;;;;8.48;2.08;;;;;;;25.89;25.87;97621.03;4988922;28;20029;-27
2022/03/01 05:57:43;;;;;;;5.68;1.98;;;;;;;25.89;25.57;97634.16;5003966;28;20057;-28
2022/03/01 06:00:12;;;;;;;2.92;1.88;;;;;;;25.87;25.61;97628.09;5001521;28;20037;-31
2022/03/01 06:02:37;;;;;;;2.53;1.98;;;;;;;25.87;25.67;97633.34;5002337;28;20025;-31
2022/03/01 06:05:03;;;;;;;3.80;2.00;;;;;;;25.85;25.61;97635.19;5002071;28;20032;-29
2022/03/01 06:07:28;;;;;;;4.20;2.20;;;;;;;25.85;25.58;97635.19;5006486;28;20147;-29
2022/03/01 06:09:53;;;;;;;3.22;1.92;;;;;;;25.82;25.46;97637.00;5007778;28;20460;-29
2022/03/01 06:12:19;;;;;;;4.00;2.22;;;;;;;25.83;25.71;97638.72;4988868;28;20033;-27
2022/03/01 06:14:44;;;;;;;4.93;1.83;;;;;;;25.83;25.61;97640.50;4997281;28;20049;-28
2022/03/01 06:17:10;;;;;;;6.43;2.08;;;;;;;25.83;25.63;97643.97;5002688;28;20021;-27
2022/03/01 06:19:35;;;;;;;6.13;2.15;;;;;;;25.83;25.73;97638.72;5007098;28;20032;-30
2022/03/01 06:22:01;;;;;;;3.85;2.20;;;;;;;25.84;25.71;97636.97;5007857;28;20025;-28
2022/03/01 06:24:26;;;;;;;5.85;1.85;;;;;;;25.85;25.67;97635.19;5012150;28;20033;-28
2022/03/01 06:26:52;;;;;;;3.03;2.03;;;;;;;25.86;25.70;97637.78;4995505;28;20600;-28
2022/03/01 06:29:17;;;;;;;3.60;2.03;;;;;;;25.87;25.79;97649.09;5012297;28;20028;-29
2022/03/01 06:31:43;;;;;;;3.22;2.00;;;;;;;25.87;25.74;97655.22;4991250;28;20060;-27
2022/03/01 06:34:08;;;;;;;3.92;2.08;;;;;;;25.89;25.90;97657.78;5014475;28;20032;-30
2022/03/01 06:36:33;;;;;;;10.93;2.38;;;;;;;25.87;25.87;97663.09;5015905;28;20029;-28
2022/03/01 06:38:59;;;;;;;4.18;2.22;;;;;;;25.88;25.81;97662.19;5012541;28;20026;-30
2022/03/01 06:41:24;;;;;;;4.32;2.42;;;;;;;25.87;25.76;97657.84;5010305;28;20037;-29
2022/03/01 06:43:49;;;;;;;5.50;2.50;;;;;;;25.89;25.77;97663.03;5007083;28;20613;-28
2022/03/01 06:46:15;;;;;;;7.03;2.30;;;;;;;25.88;25.80;97666.56;5009843;28;20041;-31
2022/03/01 06:48:40;;;;;;;5.20;2.42;;;;;;;25.88;25.86;97663.94;5013260;28;20037;-30
2022/03/01 06:51:07;;;;;;;5.95;2.30;;;;;;;25.88;25.93;97671.81;5013586;28;20127;-30
2022/03/01 06:53:34;;;;;;;8.18;2.45;;;;;;;25.88;25.77;97671.81;5008431;28;20028;-31
2022/03/01 06:55:59;;;;;;;4.80;2.58;;;;;;;25.88;25.72;97677.94;5013588;28;20064;-27
2022/03/01 06:58:25;;;;;;;4.78;2.40;;;;;;;25.89;25.66;97681.44;5007959;28;20026;-31
2022/03/01 07:00:50;;;;;;;4.15;2.47;;;;;;;25.87;25.64;97672.75;5014868;28;20030;-28
2022/03/01 07:03:15;;;;;;;3.60;2.70;;;;;;;25.87;25.70;97675.38;5010783;28;20032;-30
2022/03/01 07:05:41;;;;;;;5.25;2.70;;;;;;;25.88;25.71;97683.19;5013878;28;20030;-28
2022/03/01 07:08:08;;;;;;;6.47;4.35;;;;;;;25.88;25.55;97683.19;5003707;28;20045;-31
2022/03/01 07:10:34;;;;;;;5.90;3.33;;;;;;;25.88;25.44;97687.56;5005370;28;20029;-27
2022/03/01 07:12:59;;;;;;;5.25;2.80;;;;;;;25.87;25.64;97691.13;5002469;28;20439;-30
2022/03/01 07:15:25;;;;;;;10.10;3.20;;;;;;;25.88;25.57;97692.81;5002994;28;20033;-29
2022/03/01 07:17:50;;;;;;;5.30;3.03;;;;;;;25.88;25.66;97692.81;5003982;28;20104;-28
2022/03/01 07:20:16;;;;;;;4.90;2.80;;;;;;;25.89;25.79;97697.19;5003673;28;20029;-30
2022/03/01 07:22:41;;;;;;;4.82;2.70;;;;;;;25.90;25.75;97702.34;5002726;28;20041;-29
2022/03/01 07:25:07;;;;;;;5.93;2.85;;;;;;;25.92;25.87;97711.03;5006668;28;20033;-28
2022/03/01 07:27:32;;;;;;;5.55;3.20;;;;;;;25.93;25.79;97706.66;5004731;28;20100;-30
2022/03/01 07:29:58;;;;;;;4.07;2.80;;;;;;;25.96;25.83;97702.13;5005003;28;20043;-29
2022/03/01 07:32:24;;;;;;;6.15;3.08;;;;;;;25.98;25.83;97704.69;5013687;28;20140;-30
2022/03/01 07:34:49;;;;;;;6.05;3.30;;;;;;;26.02;25.70;97705.44;5008185;28;20037;-28
2022/03/01 07:37:14;;;;;;;4.57;2.83;;;;;;;26.03;25.80;97701.88;5010236;28;20029;-30
2022/03/01 07:39:40;;;;;;;5.57;3.00;;;;;;;26.04;25.93;97703.56;5008949;28;20041;-28
2022/03/01 07:42:05;;;;;;;4.25;3.00;;;;;;;26.06;25.89;97702.63;5006817;28;20092;-29
2022/03/01 07:44:34;;;;;;;3.63;2.75;;;;;;;26.09;25.73;97713.00;5007873;28;20108;-31
2022/03/01 07:46:59;;;;;;;7.05;3.30;;;;;;;26.11;25.96;97710.31;5007151;28;20030;-29
2022/03/01 07:49:24;;;;;;;5.95;2.97;;;;;;;26.13;25.85;97707.63;5009613;28;20556;-30
2022/03/01 07:51:50;;;;;;;5.32;3.38;;;;;;;26.15;25.75;97706.63;5010503;28;20029;-28
2022/03/01 07:54:15;;;;;;;4.65;3.03;;;;;;;26.17;25.91;97710.09;5008677;28;20658;-29
2022/03/01 07:56:41;;;;;;;6.20;3.60;;;;;;;26.17;25.47;97707.44;5007079;28;20400;-30
2022/03/01 07:59:07;;;;;;;4.10;3.20;;;;;;;26.20;25.59;97709.09;5008698;28;20029;-28
2022/03/01 08:01:32;;;;;;;9.45;3.50;;;;;;;26.22;25.68;97707.25;5008163;28;20025;-30
2022/03/01 08:03:57;;;;;;;4.80;3.15;;;;;;;26.23;25.54;97695.81;5006235;28;20037;-28
2022/03/01 08:06:23;;;;;;;4.20;3.00;;;;;;;26.25;25.66;97694.00;5009397;28;20040;-27
2022/03/01 08:08:48;;;;;;;4.88;2.88;;;;;;;26.27;25.70;97693.97;5007597;28;20057;-27
2022/03/01 08:11:14;;;;;;;4.57;3.08;;;;;;;26.29;25.71;97698.25;5008918;28;20022;-28
2022/03/01 08:13:39;;;;;;;5.22;3.25;;;;;;;26.31;25.84;97696.41;5008693;28;20033;-27
2022/03/01 08:16:05;;;;;;;4.60;3.25;;;;;;;26.34;25.58;97690.16;4985704;28;20037;-34
2022/03/01 08:18:30;;;;;;;3.63;2.83;;;;;;;26.37;25.39;97689.16;5008193;28;20057;-26
2022/03/01 08:20:57;;;;;;;6.70;3.20;;;;;;;26.40;25.51;97694.31;5003562;28;20033;-28
2022/03/01 08:23:23;;;;;;;4.70;2.90;;;;;;;26.41;25.47;97691.63;5009010;28;20040;-29
2022/03/01 08:25:49;;;;;;;3.72;2.67;;;;;;;26.46;25.63;97696.66;5007682;28;20510;-29
2022/03/01 08:28:14;;;;;;;4.57;3.33;;;;;;;26.47;25.41;97691.34;5005461;28;20404;-32
2022/03/01 08:30:40;;;;;;;5.32;2.92;;;;;;;26.50;25.69;97690.38;5009313;28;20055;-29
2022/03/01 08:33:05;;;;;;;4.30;2.80;;;;;;;26.52;25.56;97688.56;5006805;28;20021;-30
2022/03/01 08:35:34;;;;;;;7.57;3.20;;;;;;;26.53;25.22;97692.88;5006853;28;20878;-28
2022/03/01 08:38:02;;;;;;;4.40;3.17;;;;;;;26.56;25.64;97694.53;5010140;28;20127;-29
2022/03/01 08:40:29;;;;;;;17.27;5.50;;;;;;;26.58;24.88;97687.44;5003139;28;20086;-29
2022/03/01 08:42:54;;;;;;;16.67;5.13;;;;;;;26.56;24.32;97687.50;5005594;28;20033;-27
2022/03/01 08:45:20;;;;;;;11.63;3.90;;;;;;;26.55;24.87;97683.13;5003462;28;20322;-29
2022/03/01 08:47:45;;;;;;;7.90;3.53;;;;;;;26.56;24.46;97684.88;5002690;28;20036;-29
2022/03/01 08:50:11;;;;;;;12.45;3.85;;;;;;;26.57;24.61;97685.72;5003952;28;20029;-28
2022/03/01 08:52:36;;;;;;;12.13;8.50;;;;;;;26.51;18.73;97681.59;5006567;28;20037;-29
2022/03/01 08:55:02;;;;;;;13.57;10.25;;;;;;;26.21;15.05;97674.84;5006866;28;20387;-27
2022/03/01 08:57:27;;;;;;;17.85;10.07;;;;;;;25.87;15.91;97678.00;5007206;28;20400;-27
2022/03/01 08:59:53;;;;;;;13.80;8.02;;;;;;;25.60;17.23;97668.53;5003371;28;20044;-27
2022/03/01 09:02:20;;;;;;;10.18;7.60;;;;;;;25.44;17.95;97655.09;5005791;28;20037;-30
2022/03/01 09:04:45;;;;;;;10.25;6.72;;;;;;;25.31;18.71;97658.19;5009837;28;20035;-28
2022/03/01 09:07:10;;;;;;;7.20;5.50;;;;;;;25.28;19.16;97652.19;5015943;28;20034;-28
2022/03/01 09:09:36;;;;;;;7.88;6.00;;;;;;;25.26;19.50;97660.13;5015772;28;20032;-28
2022/03/01 09:12:02;;;;;;;9.65;6.28;;;;;;;25.28;19.90;97658.28;5016656;28;20120;-31
2022/03/01 09:14:27;;;;;;;10.10;6.35;;;;;;;25.31;20.12;97662.56;5014789;28;20507;-29
2022/03/01 09:16:52;;;;;;;7.50;5.30;;;;;;;25.35;20.48;97656.28;5012803;28;20026;-32
2022/03/01 09:19:18;;;;;;;6.50;5.43;;;;;;;25.39;20.50;97655.25;5008857;28;20033;-27
2022/03/01 09:21:43;;;;;;;7.47;5.40;;;;;;;25.45;20.83;97659.44;5013751;28;20034;-29
2022/03/01 09:24:09;;;;;;;9.27;5.35;;;;;;;25.49;20.86;97663.66;5011557;28;20139;-26
2022/03/01 09:26:34;;;;;;;7.47;5.72;;;;;;;25.55;20.94;97666.03;5005828;28;20052;-28
2022/03/01 09:29:00;;;;;;;7.20;5.47;;;;;;;25.60;21.29;97660.66;5009786;28;20061;-29
2022/03/01 09:31:25;;;;;;;8.32;5.20;;;;;;;25.65;21.29;97661.31;5008735;28;20116;-31
2022/03/01 09:33:50;;;;;;;7.45;4.97;;;;;;;25.70;21.50;97658.50;5010267;28;20044;-30
2022/03/01 09:36:16;;;;;;;12.23;5.25;;;;;;;25.75;21.45;97664.44;5010827;28;20384;-27
2022/03/01 09:38:42;;;;;;;9.00;4.80;;;;;;;25.79;21.61;97663.41;5012568;28;20068;-30
2022/03/01 09:41:08;;;;;;;10.13;4.68;;;;;;;25.85;21.80;97664.09;5010755;28;20424;-28
2022/03/01 09:43:37;;;;;;;10.52;5.10;;;;;;;25.89;21.74;97657.78;5012097;28;20033;-27
2022/03/01 09:46:03;;;;;;;11.85;5.40;;;;;;;25.92;21.99;97649.78;5005845;28;20148;-28
2022/03/01 09:48:28;;;;;;;9.20;4.72;;;;;;;25.96;21.97;97654.00;5002599;28;21105;-30
2022/03/01 09:50:53;;;;;;;12.35;5.38;;;;;;;26.02;21.99;97643.25;5002352;28;20041;-30
2022/03/01 09:53:19;;;;;;;9.77;6.72;;;;;;;26.02;20.69;97645.00;5002989;28;20079;-28
2022/03/01 09:55:44;;;;;;;13.13;7.95;;;;;;;25.95;19.18;97641.78;4999046;28;20384;-29
2022/03/01 09:58:10;;;;;;;12.73;8.10;;;;;;;25.87;18.76;97652.59;5008915;28;20033;-29
2022/03/01 10:00:35;;;;;;;12.35;7.85;;;;;;;25.74;17.13;97649.59;5006207;28;21479;-32
2022/03/01 10:03:00;;;;;;;12.70;6.63;;;;;;;25.68;18.30;97649.84;5006663;28;20041;-28
2022/03/01 10:05:37;;;;;;;10.10;6.10;;;;;;;25.65;18.83;97639.44;4993203;28;20431;-29
2022/03/01 10:08:20;;;;;;;12.55;5.53;;;;;;;25.66;19.37;97641.19;5005197;28;20030;-31
2022/03/01 10:10:53;;;;;;;8.70;5.38;;;;;;;25.68;19.71;97644.59;4995016;28;20108;-27
2022/03/01 10:13:26;;;;;;;8.73;5.53;;;;;;;25.72;20.03;97640.94;5016681;28;20060;-31
2022/03/01 10:16:01;;;;;;;7.93;5.38;;;;;;;25.76;20.15;97639.91;4995072;28;20539;-30
2022/03/01 10:18:30;;;;;;;9.45;4.65;;;;;;;25.81;20.46;97639.69;5012278;28;20120;-32
2022/03/01 10:21:01;;;;;;;10.85;5.13;;;;;;;25.87;20.64;97635.97;5001931;28;20059;-29
2022/03/01 10:23:26;;;;;;;8.57;4.40;;;;;;;25.90;20.83;97636.69;4992549;28;20102;-27
2022/03/01 10:25:52;;;;;;;11.02;4.88;;;;;;;25.95;20.99;97641.78;5013706;28;20022;-28
2022/03/01 10:28:17;;;;;;;12.20;4.93;;;;;;;26.00;20.98;97638.97;4997310;28;20033;-27
2022/03/01 10:30:42;;;;;;;7.55;4.68;;;;;;;26.04;21.16;97641.41;5015287;28;20091;-29
2022/03/01 10:33:10;;;;;;;9.48;4.72;;;;;;;26.06;21.32;97626.47;5012178;28;20526;-28
2022/03/01 10:35:36;;;;;;;8.30;4.55;;;;;;;26.12;21.34;97632.38;5010181;28;20032;-29
2022/03/01 10:38:02;;;;;;;8.02;4.40;;;;;;;26.15;21.49;97635.72;5013587;28;20029;-35
2022/03/01 10:40:28;;;;;;;7.85;4.38;;;;;;;26.19;21.70;97628.56;5008619;28;20031;-29
2022/03/01 10:43:02;;;;;;;7.00;4.18;;;;;;;26.21;21.66;97629.34;5010228;28;20034;-29
2022/03/01 10:45:32;;;;;;;6.88;4.13;;;;;;;26.23;21.92;97630.13;5014485;28;20040;-28
2022/03/01 10:47:58;;;;;;;8.07;4.75;;;;;;;26.27;21.94;97631.75;5012571;28;20026;-29
2022/03/01 10:50:23;;;;;;;6.43;3.90;;;;;;;26.29;21.96;97629.06;4996976;28;20038;-29
2022/03/01 10:52:49;;;;;;;6.65;4.18;;;;;;;26.30;22.18;97629.00;5013218;28;20029;-30
2022/03/01 10:55:30;;;;;;;6.50;4.10;;;;;;;26.33;22.26;97631.50;4979972;28;20590;-33
2022/03/01 10:58:02;;;;;;;7.80;4.30;;;;;;;26.35;22.15;97624.41;5014406;28;20035;-28
2022/03/01 11:00:28;;;;;;;8.63;4.35;;;;;;;26.37;22.17;97631.34;5012759;28;20120;-30
2022/03/01 11:02:53;;;;;;;6.00;4.20;;;;;;;26.38;22.34;97628.66;5010215;28;20025;-29
2022/03/01 11:05:18;;;;;;;7.65;3.85;;;;;;;26.40;22.35;97631.25;5014921;28;20471;-32
2022/03/01 11:07:44;;;;;;;6.28;3.97;;;;;;;26.41;22.63;97623.28;4979665;28;20699;-29
2022/03/01 11:10:12;;;;;;;9.95;4.22;;;;;;;26.44;22.67;97617.06;4992623;28;20642;-30
2022/03/01 11:12:39;;;;;;;6.70;3.92;;;;;;;26.45;22.87;97613.50;5014017;28;20036;-27
2022/03/01 11:15:26;;;;;;;6.13;3.70;;;;;;;26.47;22.59;97622.19;5000194;28;20037;-36
2022/03/01 11:18:19;;;;;;;6.50;3.70;;;;;;;26.46;22.91;97613.44;5016834;28;20034;-27
2022/03/01 11:20:45;;;;;;;5.55;3.75;;;;;;;26.49;22.91;97609.81;5016868;28;20061;-30
2022/03/01 11:23:15;;;;;;;4.60;3.40;;;;;;;26.49;23.15;97609.81;4994393;28;20934;-30
2022/03/01 11:25:42;;;;;;;5.53;3.50;;;;;;;26.50;23.13;97605.44;4997917;28;20035;-29